sensor_id;sensor_type;location;lat;lon;timestamp;temperature;humidity
21518;DHT22;61765;45.794;24.150;2023-03-19T00:03:42;10.40;71.30
21518;DHT22;61765;45.794;24.150;2023-03-19T00:11:49;10.30;70.50
21518;DHT22;61765;45.794;24.150;2023-03-19T00:19:57;10.60;69.60
21518;DHT22;61765;45.794;24.150;2023-03-19T00:28:02;10.50;69.20
21518;DHT22;61765;45.794;24.150;2023-03-19T00:36:11;10.20;69.60
21518;DHT22;61765;45.794;24.150;2023-03-19T00:44:17;9.50;70.50
21518;DHT22;61765;45.794;24.150;2023-03-19T00:52:25;9.80;70.60
21518;DHT22;61765;45.794;24.150;2023-03-19T01:00:30;9.80;69.50
21518;DHT22;61765;45.794;24.150;2023-03-19T01:08:41;9.80;69.80
21518;DHT22;61765;45.794;24.150;2023-03-19T01:16:47;9.70;69.90
21518;DHT22;61765;45.794;24.150;2023-03-19T01:24:55;9.50;70.50
21518;DHT22;61765;45.794;24.150;2023-03-19T01:33:02;9.60;70.40
21518;DHT22;61765;45.794;24.150;2023-03-19T01:41:33;9.70;70.40
21518;DHT22;61765;45.794;24.150;2023-03-19T01:49:59;9.50;70.50
21518;DHT22;61765;45.794;24.150;2023-03-19T01:58:09;9.60;70.60
21518;DHT22;61765;45.794;24.150;2023-03-19T02:06:33;9.60;70.60
21518;DHT22;61765;45.794;24.150;2023-03-19T02:14:42;9.40;71.20
21518;DHT22;61765;45.794;24.150;2023-03-19T02:22:54;9.50;71.60
21518;DHT22;61765;45.794;24.150;2023-03-19T02:31:05;9.20;71.60
21518;DHT22;61765;45.794;24.150;2023-03-19T02:39:17;9.50;71.80
21518;DHT22;61765;45.794;24.150;2023-03-19T02:47:26;9.50;71.60
21518;DHT22;61765;45.794;24.150;2023-03-19T02:55:32;9.20;71.30
21518;DHT22;61765;45.794;24.150;2023-03-19T03:03:40;8.80;72.20
21518;DHT22;61765;45.794;24.150;2023-03-19T03:11:46;8.90;72.80
21518;DHT22;61765;45.794;24.150;2023-03-19T03:19:54;8.90;72.40
21518;DHT22;61765;45.794;24.150;2023-03-19T03:27:59;8.80;72.60
21518;DHT22;61765;45.794;24.150;2023-03-19T03:36:07;8.80;72.70
21518;DHT22;61765;45.794;24.150;2023-03-19T03:44:13;8.80;73.20
21518;DHT22;61765;45.794;24.150;2023-03-19T03:52:22;9.00;73.00
21518;DHT22;61765;45.794;24.150;2023-03-19T04:00:33;8.80;73.30
21518;DHT22;61765;45.794;24.150;2023-03-19T04:08:41;8.80;73.80
21518;DHT22;61765;45.794;24.150;2023-03-19T04:16:47;8.60;74.30
21518;DHT22;61765;45.794;24.150;2023-03-19T04:25:17;8.50;74.00
21518;DHT22;61765;45.794;24.150;2023-03-19T04:51:02;8.50;74.60
21518;DHT22;61765;45.794;24.150;2023-03-19T04:59:10;8.30;74.60
21518;DHT22;61765;45.794;24.150;2023-03-19T05:07:19;8.40;75.00
21518;DHT22;61765;45.794;24.150;2023-03-19T05:15:25;8.10;75.00
21518;DHT22;61765;45.794;24.150;2023-03-19T05:23:41;7.50;77.40
21518;DHT22;61765;45.794;24.150;2023-03-19T05:31:46;8.00;76.50
21518;DHT22;61765;45.794;24.150;2023-03-19T05:39:57;8.00;77.00
21518;DHT22;61765;45.794;24.150;2023-03-19T05:48:04;8.40;77.00
21518;DHT22;61765;45.794;24.150;2023-03-19T05:56:17;8.10;77.00
21518;DHT22;61765;45.794;24.150;2023-03-19T06:04:42;8.30;76.70
21518;DHT22;61765;45.794;24.150;2023-03-19T06:12:52;9.00;75.60
21518;DHT22;61765;45.794;24.150;2023-03-19T06:21:33;9.80;74.20
21518;DHT22;61765;45.794;24.150;2023-03-19T06:29:41;10.10;72.40
21518;DHT22;61765;45.794;24.150;2023-03-19T06:37:56;9.90;73.10
21518;DHT22;61765;45.794;24.150;2023-03-19T06:46:04;10.40;71.50
21518;DHT22;61765;45.794;24.150;2023-03-19T06:54:12;9.90;72.20
21518;DHT22;61765;45.794;24.150;2023-03-19T07:02:21;9.60;75.00
21518;DHT22;61765;45.794;24.150;2023-03-19T07:10:27;10.60;71.40
21518;DHT22;61765;45.794;24.150;2023-03-19T07:18:36;10.90;72.00
21518;DHT22;61765;45.794;24.150;2023-03-19T07:26:41;12.20;68.70
21518;DHT22;61765;45.794;24.150;2023-03-19T07:34:50;13.20;65.20
21518;DHT22;61765;45.794;24.150;2023-03-19T07:42:56;13.80;62.70
21518;DHT22;61765;45.794;24.150;2023-03-19T07:51:04;14.60;62.40
21518;DHT22;61765;45.794;24.150;2023-03-19T07:59:10;14.50;60.80
21518;DHT22;61765;45.794;24.150;2023-03-19T08:07:18;14.40;61.50
21518;DHT22;61765;45.794;24.150;2023-03-19T08:15:23;13.40;64.40
21518;DHT22;61765;45.794;24.150;2023-03-19T08:23:31;13.90;64.70
21518;DHT22;61765;45.794;24.150;2023-03-19T08:31:37;14.10;63.10
21518;DHT22;61765;45.794;24.150;2023-03-19T08:39:45;14.70;62.20
21518;DHT22;61765;45.794;24.150;2023-03-19T08:47:51;15.50;60.30
21518;DHT22;61765;45.794;24.150;2023-03-19T08:56:05;15.40;60.80
21518;DHT22;61765;45.794;24.150;2023-03-19T09:04:11;15.00;63.60
21518;DHT22;61765;45.794;24.150;2023-03-19T09:12:19;15.40;63.70
21518;DHT22;61765;45.794;24.150;2023-03-19T09:20:25;16.60;62.40
21518;DHT22;61765;45.794;24.150;2023-03-19T09:28:35;17.40;58.10
21518;DHT22;61765;45.794;24.150;2023-03-19T09:36:41;17.70;56.90
21518;DHT22;61765;45.794;24.150;2023-03-19T09:44:53;17.60;56.30
21518;DHT22;61765;45.794;24.150;2023-03-19T09:53:02;18.80;54.90
21518;DHT22;61765;45.794;24.150;2023-03-19T10:01:24;19.80;54.20
21518;DHT22;61765;45.794;24.150;2023-03-19T10:09:40;20.70;52.10
21518;DHT22;61765;45.794;24.150;2023-03-19T10:17:58;27.40;44.20
21518;DHT22;61765;45.794;24.150;2023-03-19T10:26:07;35.70;36.70
21518;DHT22;61765;45.794;24.150;2023-03-19T10:34:27;41.80;30.60
21518;DHT22;61765;45.794;24.150;2023-03-19T10:42:39;44.70;29.40
21518;DHT22;61765;45.794;24.150;2023-03-19T10:50:52;45.70;28.40
21518;DHT22;61765;45.794;24.150;2023-03-19T10:59:01;47.80;26.00
21518;DHT22;61765;45.794;24.150;2023-03-19T11:07:12;49.00;26.60
21518;DHT22;61765;45.794;24.150;2023-03-19T11:15:21;49.20;25.50
21518;DHT22;61765;45.794;24.150;2023-03-19T11:23:39;49.90;25.40
21518;DHT22;61765;45.794;24.150;2023-03-19T11:31:49;52.20;24.80
21518;DHT22;61765;45.794;24.150;2023-03-19T11:40:06;54.20;24.10
21518;DHT22;61765;45.794;24.150;2023-03-19T11:48:30;55.10;23.30
21518;DHT22;61765;45.794;24.150;2023-03-19T11:56:43;54.30;23.50
21518;DHT22;61765;45.794;24.150;2023-03-19T12:05:05;52.70;23.30
21518;DHT22;61765;45.794;24.150;2023-03-19T12:13:28;47.50;23.10
21518;DHT22;61765;45.794;24.150;2023-03-19T12:21:44;35.70;28.00
21518;DHT22;61765;45.794;24.150;2023-03-19T12:30:00;28.00;33.60
21518;DHT22;61765;45.794;24.150;2023-03-19T12:38:11;26.30;36.70
21518;DHT22;61765;45.794;24.150;2023-03-19T12:46:24;25.50;38.20
21518;DHT22;61765;45.794;24.150;2023-03-19T12:54:35;24.80;38.20
21518;DHT22;61765;45.794;24.150;2023-03-19T13:02:50;24.40;40.60
21518;DHT22;61765;45.794;24.150;2023-03-19T13:10:58;24.00;41.10
21518;DHT22;61765;45.794;24.150;2023-03-19T13:19:17;23.60;40.80
21518;DHT22;61765;45.794;24.150;2023-03-19T13:27:28;23.40;42.20
21518;DHT22;61765;45.794;24.150;2023-03-19T13:35:42;23.20;42.30
21518;DHT22;61765;45.794;24.150;2023-03-19T13:43:53;22.90;42.00
21518;DHT22;61765;45.794;24.150;2023-03-19T14:09:27;22.60;42.20
21518;DHT22;61765;45.794;24.150;2023-03-19T14:17:35;22.20;41.80
21518;DHT22;61765;45.794;24.150;2023-03-19T14:26:07;22.10;42.50
21518;DHT22;61765;45.794;24.150;2023-03-19T14:34:19;22.00;42.60
21518;DHT22;61765;45.794;24.150;2023-03-19T14:42:31;21.60;43.30
21518;DHT22;61765;45.794;24.150;2023-03-19T14:50:55;21.50;43.40
21518;DHT22;61765;45.794;24.150;2023-03-19T14:59:08;21.40;43.70
21518;DHT22;61765;45.794;24.150;2023-03-19T15:07:21;21.30;43.50
21518;DHT22;61765;45.794;24.150;2023-03-19T15:15:53;21.00;45.10
21518;DHT22;61765;45.794;24.150;2023-03-19T15:24:02;20.90;45.50
21518;DHT22;61765;45.794;24.150;2023-03-19T15:32:11;20.90;46.30
21518;DHT22;61765;45.794;24.150;2023-03-19T15:40:19;20.80;45.90
21518;DHT22;61765;45.794;24.150;2023-03-19T15:48:33;20.60;47.10
21518;DHT22;61765;45.794;24.150;2023-03-19T15:56:40;20.50;48.10
21518;DHT22;61765;45.794;24.150;2023-03-19T16:04:48;20.40;48.80
21518;DHT22;61765;45.794;24.150;2023-03-19T16:13:28;20.20;49.20
21518;DHT22;61765;45.794;24.150;2023-03-19T16:21:38;19.90;50.00
21518;DHT22;61765;45.794;24.150;2023-03-19T16:29:45;19.70;51.40
21518;DHT22;61765;45.794;24.150;2023-03-19T16:37:55;19.50;51.00
21518;DHT22;61765;45.794;24.150;2023-03-19T16:46:11;19.30;51.70
21518;DHT22;61765;45.794;24.150;2023-03-19T16:54:20;19.00;52.80
21518;DHT22;61765;45.794;24.150;2023-03-19T17:02:28;18.80;53.00
21518;DHT22;61765;45.794;24.150;2023-03-19T17:10:39;18.70;54.20
21518;DHT22;61765;45.794;24.150;2023-03-19T17:18:45;18.70;53.90
21518;DHT22;61765;45.794;24.150;2023-03-19T17:26:56;18.40;53.50
21518;DHT22;61765;45.794;24.150;2023-03-19T17:35:03;18.30;54.30
21518;DHT22;61765;45.794;24.150;2023-03-19T17:43:12;17.90;55.30
21518;DHT22;61765;45.794;24.150;2023-03-19T17:51:19;17.60;56.90
21518;DHT22;61765;45.794;24.150;2023-03-19T17:59:29;16.80;58.40
21518;DHT22;61765;45.794;24.150;2023-03-19T18:07:34;17.00;57.90
21518;DHT22;61765;45.794;24.150;2023-03-19T18:15:44;17.10;58.10
21518;DHT22;61765;45.794;24.150;2023-03-19T18:23:49;16.90;58.60
21518;DHT22;61765;45.794;24.150;2023-03-19T18:32:02;16.80;58.80
21518;DHT22;61765;45.794;24.150;2023-03-19T18:40:12;16.60;59.10
21518;DHT22;61765;45.794;24.150;2023-03-19T18:48:24;16.40;59.30
21518;DHT22;61765;45.794;24.150;2023-03-19T18:56:32;16.30;59.90
21518;DHT22;61765;45.794;24.150;2023-03-19T19:04:41;16.20;60.30
21518;DHT22;61765;45.794;24.150;2023-03-19T19:12:48;16.10;60.90
21518;DHT22;61765;45.794;24.150;2023-03-19T19:20:57;16.00;61.70
21518;DHT22;61765;45.794;24.150;2023-03-19T19:29:04;15.80;62.30
21518;DHT22;61765;45.794;24.150;2023-03-19T19:37:16;15.70;62.90
21518;DHT22;61765;45.794;24.150;2023-03-19T19:45:27;15.60;63.70
21518;DHT22;61765;45.794;24.150;2023-03-19T19:53:36;15.50;63.90
21518;DHT22;61765;45.794;24.150;2023-03-19T20:01:42;15.40;63.90
21518;DHT22;61765;45.794;24.150;2023-03-19T20:09:51;15.30;63.80
21518;DHT22;61765;45.794;24.150;2023-03-19T20:17:57;15.30;64.10
21518;DHT22;61765;45.794;24.150;2023-03-19T20:26:10;15.20;64.70
21518;DHT22;61765;45.794;24.150;2023-03-19T20:34:17;15.10;64.30
21518;DHT22;61765;45.794;24.150;2023-03-19T20:42:45;15.00;64.20
21518;DHT22;61765;45.794;24.150;2023-03-19T20:50:50;14.80;64.30
21518;DHT22;61765;45.794;24.150;2023-03-19T20:58:59;14.80;64.40
21518;DHT22;61765;45.794;24.150;2023-03-19T21:07:04;14.50;64.80
21518;DHT22;61765;45.794;24.150;2023-03-19T21:15:15;14.20;65.40
21518;DHT22;61765;45.794;24.150;2023-03-19T21:23:25;14.20;65.60
21518;DHT22;61765;45.794;24.150;2023-03-19T21:31:35;14.00;66.00
21518;DHT22;61765;45.794;24.150;2023-03-19T21:39:41;14.00;66.50
21518;DHT22;61765;45.794;24.150;2023-03-19T21:47:50;13.70;67.30
21518;DHT22;61765;45.794;24.150;2023-03-19T21:55:57;13.70;68.00
21518;DHT22;61765;45.794;24.150;2023-03-19T22:04:05;13.60;68.40
21518;DHT22;61765;45.794;24.150;2023-03-19T22:12:18;13.60;68.50
21518;DHT22;61765;45.794;24.150;2023-03-19T22:20:30;13.50;68.70
21518;DHT22;61765;45.794;24.150;2023-03-19T22:28:36;13.40;68.90
21518;DHT22;61765;45.794;24.150;2023-03-19T22:36:44;13.40;69.30
21518;DHT22;61765;45.794;24.150;2023-03-19T22:44:50;13.30;69.90
21518;DHT22;61765;45.794;24.150;2023-03-19T22:52:58;13.20;70.30
21518;DHT22;61765;45.794;24.150;2023-03-19T23:01:26;13.10;70.50
21518;DHT22;61765;45.794;24.150;2023-03-19T23:09:35;13.00;70.20
21518;DHT22;61765;45.794;24.150;2023-03-19T23:17:40;12.90;70.80
21518;DHT22;61765;45.794;24.150;2023-03-19T23:25:49;12.70;71.40
21518;DHT22;61765;45.794;24.150;2023-03-19T23:34:01;12.40;72.10
21518;DHT22;61765;45.794;24.150;2023-03-19T23:42:21;12.40;72.20
21518;DHT22;61765;45.794;24.150;2023-03-19T23:50:30;12.50;71.70
21518;DHT22;61765;45.794;24.150;2023-03-19T23:58:40;12.50;71.80
